sensor_id;sensor_type;location;lat;lon;timestamp;P1;durP1;ratioP1;P2;durP2;ratioP2
80217;SDS011;69533;37.974;23.708;2023-05-07T00:01:42;4.03;;;3.53;;
80217;SDS011;69533;37.974;23.708;2023-05-07T00:04:08;3.55;;;3.20;;
80217;SDS011;69533;37.974;23.708;2023-05-07T00:06:34;3.60;;;3.20;;
80217;SDS011;69533;37.974;23.708;2023-05-07T00:08:59;4.80;;;3.38;;
80217;SDS011;69533;37.974;23.708;2023-05-07T00:11:26;3.50;;;2.97;;
80217;SDS011;69533;37.974;23.708;2023-05-07T00:13:52;3.28;;;2.70;;
80217;SDS011;69533;37.974;23.708;2023-05-07T00:16:18;4.30;;;3.08;;
80217;SDS011;69533;37.974;23.708;2023-05-07T00:18:44;3.72;;;3.00;;
80217;SDS011;69533;37.974;23.708;2023-05-07T00:21:11;4.10;;;3.30;;
80217;SDS011;69533;37.974;23.708;2023-05-07T00:23:36;4.68;;;3.60;;
80217;SDS011;69533;37.974;23.708;2023-05-07T00:26:03;3.42;;;2.95;;
80217;SDS011;69533;37.974;23.708;2023-05-07T00:28:28;4.28;;;2.97;;
80217;SDS011;69533;37.974;23.708;2023-05-07T00:30:54;4.85;;;3.50;;
80217;SDS011;69533;37.974;23.708;2023-05-07T00:33:20;4.65;;;3.53;;
80217;SDS011;69533;37.974;23.708;2023-05-07T00:35:47;4.40;;;3.40;;
80217;SDS011;69533;37.974;23.708;2023-05-07T00:38:13;4.45;;;3.47;;
80217;SDS011;69533;37.974;23.708;2023-05-07T00:40:39;4.95;;;3.28;;
80217;SDS011;69533;37.974;23.708;2023-05-07T00:43:04;4.05;;;3.65;;
80217;SDS011;69533;37.974;23.708;2023-05-07T00:45:30;3.33;;;2.85;;
80217;SDS011;69533;37.974;23.708;2023-05-07T00:47:57;4.03;;;2.97;;
80217;SDS011;69533;37.974;23.708;2023-05-07T00:50:25;4.07;;;2.97;;
80217;SDS011;69533;37.974;23.708;2023-05-07T00:52:51;3.45;;;3.15;;
80217;SDS011;69533;37.974;23.708;2023-05-07T00:55:17;4.85;;;3.72;;
80217;SDS011;69533;37.974;23.708;2023-05-07T00:57:43;3.90;;;3.30;;
80217;SDS011;69533;37.974;23.708;2023-05-07T01:00:10;4.47;;;3.50;;
80217;SDS011;69533;37.974;23.708;2023-05-07T01:02:40;3.67;;;3.10;;
80217;SDS011;69533;37.974;23.708;2023-05-07T01:05:07;3.70;;;2.83;;
80217;SDS011;69533;37.974;23.708;2023-05-07T01:07:40;3.85;;;3.47;;
80217;SDS011;69533;37.974;23.708;2023-05-07T01:10:07;3.63;;;3.03;;
80217;SDS011;69533;37.974;23.708;2023-05-07T01:12:34;3.47;;;3.15;;
80217;SDS011;69533;37.974;23.708;2023-05-07T01:15:02;4.72;;;3.38;;
80217;SDS011;69533;37.974;23.708;2023-05-07T01:17:28;4.30;;;3.45;;
80217;SDS011;69533;37.974;23.708;2023-05-07T01:19:54;3.88;;;3.20;;
80217;SDS011;69533;37.974;23.708;2023-05-07T01:22:33;4.18;;;3.20;;
80217;SDS011;69533;37.974;23.708;2023-05-07T01:25:01;4.78;;;3.33;;
80217;SDS011;69533;37.974;23.708;2023-05-07T01:27:27;4.22;;;3.28;;
80217;SDS011;69533;37.974;23.708;2023-05-07T01:29:53;4.03;;;3.42;;
80217;SDS011;69533;37.974;23.708;2023-05-07T01:32:27;5.05;;;3.63;;
80217;SDS011;69533;37.974;23.708;2023-05-07T01:35:00;3.38;;;3.08;;
80217;SDS011;69533;37.974;23.708;2023-05-07T01:37:27;4.15;;;3.50;;
80217;SDS011;69533;37.974;23.708;2023-05-07T01:39:53;4.10;;;3.70;;
80217;SDS011;69533;37.974;23.708;2023-05-07T01:42:20;4.63;;;3.22;;
80217;SDS011;69533;37.974;23.708;2023-05-07T01:44:47;4.22;;;3.63;;
80217;SDS011;69533;37.974;23.708;2023-05-07T01:47:13;4.28;;;3.53;;
80217;SDS011;69533;37.974;23.708;2023-05-07T01:49:41;3.67;;;3.13;;
80217;SDS011;69533;37.974;23.708;2023-05-07T01:52:09;4.68;;;3.50;;
80217;SDS011;69533;37.974;23.708;2023-05-07T01:54:35;3.67;;;3.17;;
80217;SDS011;69533;37.974;23.708;2023-05-07T01:57:01;4.70;;;3.20;;
80217;SDS011;69533;37.974;23.708;2023-05-07T01:59:27;4.20;;;3.42;;
80217;SDS011;69533;37.974;23.708;2023-05-07T02:01:52;4.35;;;3.33;;
80217;SDS011;69533;37.974;23.708;2023-05-07T02:04:18;3.65;;;3.28;;
80217;SDS011;69533;37.974;23.708;2023-05-07T02:06:44;3.97;;;3.20;;
80217;SDS011;69533;37.974;23.708;2023-05-07T02:09:09;3.80;;;3.00;;
80217;SDS011;69533;37.974;23.708;2023-05-07T02:11:35;5.05;;;3.65;;
80217;SDS011;69533;37.974;23.708;2023-05-07T02:14:01;4.25;;;3.40;;
80217;SDS011;69533;37.974;23.708;2023-05-07T02:16:27;4.80;;;3.40;;
80217;SDS011;69533;37.974;23.708;2023-05-07T02:18:52;5.10;;;3.63;;
80217;SDS011;69533;37.974;23.708;2023-05-07T02:21:18;4.57;;;2.90;;
80217;SDS011;69533;37.974;23.708;2023-05-07T02:23:44;4.13;;;3.17;;
80217;SDS011;69533;37.974;23.708;2023-05-07T02:26:10;4.60;;;3.35;;
80217;SDS011;69533;37.974;23.708;2023-05-07T02:28:36;5.30;;;3.50;;
80217;SDS011;69533;37.974;23.708;2023-05-07T02:31:02;4.35;;;2.90;;
80217;SDS011;69533;37.974;23.708;2023-05-07T02:33:28;3.92;;;3.28;;
80217;SDS011;69533;37.974;23.708;2023-05-07T02:35:55;4.30;;;3.28;;
80217;SDS011;69533;37.974;23.708;2023-05-07T02:38:21;4.13;;;3.20;;
80217;SDS011;69533;37.974;23.708;2023-05-07T02:40:48;5.07;;;3.70;;
80217;SDS011;69533;37.974;23.708;2023-05-07T02:43:13;4.32;;;3.33;;
80217;SDS011;69533;37.974;23.708;2023-05-07T02:45:39;4.13;;;3.40;;
80217;SDS011;69533;37.974;23.708;2023-05-07T02:48:05;3.78;;;3.17;;
80217;SDS011;69533;37.974;23.708;2023-05-07T02:50:31;3.40;;;3.10;;
80217;SDS011;69533;37.974;23.708;2023-05-07T02:52:57;3.30;;;2.78;;
80217;SDS011;69533;37.974;23.708;2023-05-07T02:55:23;3.90;;;3.25;;
80217;SDS011;69533;37.974;23.708;2023-05-07T02:57:49;6.35;;;3.53;;
80217;SDS011;69533;37.974;23.708;2023-05-07T03:00:16;3.33;;;2.72;;
80217;SDS011;69533;37.974;23.708;2023-05-07T03:02:43;4.35;;;3.30;;
80217;SDS011;69533;37.974;23.708;2023-05-07T03:05:09;3.63;;;3.13;;
80217;SDS011;69533;37.974;23.708;2023-05-07T03:07:35;4.65;;;3.58;;
80217;SDS011;69533;37.974;23.708;2023-05-07T03:10:02;4.97;;;3.50;;
80217;SDS011;69533;37.974;23.708;2023-05-07T03:12:28;3.47;;;3.15;;
80217;SDS011;69533;37.974;23.708;2023-05-07T03:14:54;4.07;;;3.05;;
80217;SDS011;69533;37.974;23.708;2023-05-07T03:17:20;4.22;;;3.03;;
80217;SDS011;69533;37.974;23.708;2023-05-07T03:19:46;3.85;;;2.92;;
80217;SDS011;69533;37.974;23.708;2023-05-07T03:22:12;3.95;;;3.50;;
80217;SDS011;69533;37.974;23.708;2023-05-07T03:24:37;3.60;;;2.80;;
80217;SDS011;69533;37.974;23.708;2023-05-07T03:27:03;2.90;;;2.65;;
80217;SDS011;69533;37.974;23.708;2023-05-07T03:29:29;4.40;;;3.35;;
80217;SDS011;69533;37.974;23.708;2023-05-07T03:31:55;4.60;;;3.35;;
80217;SDS011;69533;37.974;23.708;2023-05-07T03:34:20;4.78;;;3.67;;
80217;SDS011;69533;37.974;23.708;2023-05-07T03:36:47;3.25;;;2.95;;
80217;SDS011;69533;37.974;23.708;2023-05-07T03:39:13;3.35;;;2.88;;
80217;SDS011;69533;37.974;23.708;2023-05-07T03:41:39;3.40;;;2.80;;
80217;SDS011;69533;37.974;23.708;2023-05-07T03:44:05;3.10;;;2.75;;
80217;SDS011;69533;37.974;23.708;2023-05-07T03:46:31;5.00;;;3.55;;
80217;SDS011;69533;37.974;23.708;2023-05-07T03:48:57;3.33;;;2.90;;
80217;SDS011;69533;37.974;23.708;2023-05-07T03:51:23;3.85;;;3.00;;
80217;SDS011;69533;37.974;23.708;2023-05-07T03:53:50;4.68;;;2.67;;
80217;SDS011;69533;37.974;23.708;2023-05-07T03:56:18;4.07;;;2.88;;
80217;SDS011;69533;37.974;23.708;2023-05-07T03:58:44;3.80;;;3.15;;
80217;SDS011;69533;37.974;23.708;2023-05-07T04:01:10;4.88;;;3.05;;
80217;SDS011;69533;37.974;23.708;2023-05-07T04:03:36;3.75;;;3.03;;
80217;SDS011;69533;37.974;23.708;2023-05-07T04:06:02;4.55;;;3.05;;
80217;SDS011;69533;37.974;23.708;2023-05-07T04:08:28;3.80;;;2.65;;
80217;SDS011;69533;37.974;23.708;2023-05-07T04:10:57;4.43;;;3.20;;
80217;SDS011;69533;37.974;23.708;2023-05-07T04:13:23;4.57;;;3.03;;
80217;SDS011;69533;37.974;23.708;2023-05-07T04:15:49;3.90;;;2.70;;
80217;SDS011;69533;37.974;23.708;2023-05-07T04:18:15;3.78;;;3.00;;
80217;SDS011;69533;37.974;23.708;2023-05-07T04:20:41;5.85;;;3.08;;
80217;SDS011;69533;37.974;23.708;2023-05-07T04:23:07;4.88;;;3.15;;
80217;SDS011;69533;37.974;23.708;2023-05-07T04:25:32;3.83;;;3.10;;
80217;SDS011;69533;37.974;23.708;2023-05-07T04:27:58;2.97;;;2.60;;
80217;SDS011;69533;37.974;23.708;2023-05-07T04:30:24;3.65;;;3.08;;
80217;SDS011;69533;37.974;23.708;2023-05-07T04:32:50;3.35;;;2.88;;
80217;SDS011;69533;37.974;23.708;2023-05-07T04:35:16;3.75;;;2.80;;
80217;SDS011;69533;37.974;23.708;2023-05-07T04:37:42;3.05;;;2.63;;
80217;SDS011;69533;37.974;23.708;2023-05-07T04:40:08;3.72;;;2.60;;
80217;SDS011;69533;37.974;23.708;2023-05-07T04:42:34;3.38;;;2.70;;
80217;SDS011;69533;37.974;23.708;2023-05-07T04:45:01;6.10;;;2.90;;
80217;SDS011;69533;37.974;23.708;2023-05-07T04:47:27;4.97;;;2.60;;
80217;SDS011;69533;37.974;23.708;2023-05-07T04:49:53;3.65;;;2.70;;
80217;SDS011;69533;37.974;23.708;2023-05-07T04:52:18;3.03;;;2.50;;
80217;SDS011;69533;37.974;23.708;2023-05-07T04:54:44;3.70;;;2.50;;
80217;SDS011;69533;37.974;23.708;2023-05-07T04:57:10;4.03;;;2.35;;
80217;SDS011;69533;37.974;23.708;2023-05-07T04:59:35;3.70;;;2.42;;
80217;SDS011;69533;37.974;23.708;2023-05-07T05:02:01;3.88;;;2.65;;
80217;SDS011;69533;37.974;23.708;2023-05-07T05:04:29;3.45;;;2.40;;
80217;SDS011;69533;37.974;23.708;2023-05-07T05:06:55;3.65;;;2.67;;
80217;SDS011;69533;37.974;23.708;2023-05-07T05:09:21;2.58;;;2.10;;
80217;SDS011;69533;37.974;23.708;2023-05-07T05:11:47;3.10;;;2.35;;
80217;SDS011;69533;37.974;23.708;2023-05-07T05:14:13;3.53;;;2.63;;
80217;SDS011;69533;37.974;23.708;2023-05-07T05:16:38;3.08;;;2.63;;
80217;SDS011;69533;37.974;23.708;2023-05-07T05:19:04;4.05;;;2.85;;
80217;SDS011;69533;37.974;23.708;2023-05-07T05:21:30;4.82;;;2.83;;
80217;SDS011;69533;37.974;23.708;2023-05-07T05:23:56;2.80;;;2.38;;
80217;SDS011;69533;37.974;23.708;2023-05-07T05:26:23;3.60;;;2.33;;
80217;SDS011;69533;37.974;23.708;2023-05-07T05:28:48;2.45;;;2.17;;
80217;SDS011;69533;37.974;23.708;2023-05-07T05:31:15;3.17;;;2.42;;
80217;SDS011;69533;37.974;23.708;2023-05-07T05:33:41;2.92;;;2.08;;
80217;SDS011;69533;37.974;23.708;2023-05-07T05:36:09;2.97;;;2.60;;
80217;SDS011;69533;37.974;23.708;2023-05-07T05:38:35;3.10;;;2.40;;
80217;SDS011;69533;37.974;23.708;2023-05-07T05:41:01;2.63;;;2.15;;
80217;SDS011;69533;37.974;23.708;2023-05-07T05:43:27;2.50;;;2.30;;
80217;SDS011;69533;37.974;23.708;2023-05-07T05:45:52;2.47;;;2.10;;
80217;SDS011;69533;37.974;23.708;2023-05-07T05:48:18;3.10;;;2.20;;
80217;SDS011;69533;37.974;23.708;2023-05-07T05:50:44;3.05;;;2.60;;
80217;SDS011;69533;37.974;23.708;2023-05-07T05:53:10;3.00;;;2.35;;
80217;SDS011;69533;37.974;23.708;2023-05-07T05:55:35;2.67;;;2.08;;
80217;SDS011;69533;37.974;23.708;2023-05-07T05:58:02;2.40;;;2.20;;
80217;SDS011;69533;37.974;23.708;2023-05-07T06:00:28;2.70;;;2.45;;
80217;SDS011;69533;37.974;23.708;2023-05-07T06:02:54;2.80;;;2.15;;
80217;SDS011;69533;37.974;23.708;2023-05-07T06:05:20;3.53;;;2.25;;
80217;SDS011;69533;37.974;23.708;2023-05-07T06:07:46;2.28;;;2.08;;
80217;SDS011;69533;37.974;23.708;2023-05-07T06:10:11;3.17;;;2.30;;
80217;SDS011;69533;37.974;23.708;2023-05-07T06:12:37;3.05;;;2.22;;
80217;SDS011;69533;37.974;23.708;2023-05-07T06:15:03;2.80;;;2.30;;
80217;SDS011;69533;37.974;23.708;2023-05-07T06:17:29;2.33;;;2.13;;
80217;SDS011;69533;37.974;23.708;2023-05-07T06:19:55;2.63;;;2.35;;
80217;SDS011;69533;37.974;23.708;2023-05-07T06:22:21;2.63;;;2.10;;
80217;SDS011;69533;37.974;23.708;2023-05-07T06:24:46;3.10;;;2.50;;
80217;SDS011;69533;37.974;23.708;2023-05-07T06:27:12;2.33;;;1.90;;
80217;SDS011;69533;37.974;23.708;2023-05-07T06:29:38;2.95;;;2.13;;
80217;SDS011;69533;37.974;23.708;2023-05-07T06:32:10;2.40;;;2.20;;
80217;SDS011;69533;37.974;23.708;2023-05-07T06:34:37;2.50;;;2.20;;
80217;SDS011;69533;37.974;23.708;2023-05-07T06:37:04;2.75;;;2.28;;
80217;SDS011;69533;37.974;23.708;2023-05-07T06:39:30;2.10;;;1.90;;
80217;SDS011;69533;37.974;23.708;2023-05-07T06:41:57;2.95;;;1.98;;
80217;SDS011;69533;37.974;23.708;2023-05-07T06:44:22;3.13;;;1.92;;
80217;SDS011;69533;37.974;23.708;2023-05-07T06:46:49;3.22;;;2.03;;
80217;SDS011;69533;37.974;23.708;2023-05-07T06:49:14;2.78;;;2.17;;
80217;SDS011;69533;37.974;23.708;2023-05-07T06:51:40;2.42;;;1.92;;
80217;SDS011;69533;37.974;23.708;2023-05-07T06:54:06;2.33;;;1.70;;
80217;SDS011;69533;37.974;23.708;2023-05-07T06:56:32;3.22;;;2.00;;
80217;SDS011;69533;37.974;23.708;2023-05-07T06:59:02;3.00;;;2.15;;
80217;SDS011;69533;37.974;23.708;2023-05-07T07:01:28;2.40;;;2.17;;
80217;SDS011;69533;37.974;23.708;2023-05-07T07:03:54;3.22;;;2.10;;
80217;SDS011;69533;37.974;23.708;2023-05-07T07:06:20;2.13;;;1.77;;
80217;SDS011;69533;37.974;23.708;2023-05-07T07:08:46;4.63;;;2.10;;
80217;SDS011;69533;37.974;23.708;2023-05-07T07:11:11;3.90;;;2.13;;
80217;SDS011;69533;37.974;23.708;2023-05-07T07:13:37;3.50;;;1.80;;
80217;SDS011;69533;37.974;23.708;2023-05-07T07:16:03;2.20;;;1.67;;
80217;SDS011;69533;37.974;23.708;2023-05-07T07:18:29;2.42;;;1.92;;
80217;SDS011;69533;37.974;23.708;2023-05-07T07:20:55;3.03;;;1.70;;
80217;SDS011;69533;37.974;23.708;2023-05-07T07:23:20;2.30;;;1.73;;
80217;SDS011;69533;37.974;23.708;2023-05-07T07:25:46;2.70;;;1.85;;
80217;SDS011;69533;37.974;23.708;2023-05-07T07:28:12;2.55;;;1.83;;
80217;SDS011;69533;37.974;23.708;2023-05-07T07:30:38;2.42;;;1.73;;
80217;SDS011;69533;37.974;23.708;2023-05-07T07:33:04;1.92;;;1.67;;
80217;SDS011;69533;37.974;23.708;2023-05-07T07:35:30;3.38;;;1.67;;
80217;SDS011;69533;37.974;23.708;2023-05-07T07:37:56;2.65;;;1.88;;
80217;SDS011;69533;37.974;23.708;2023-05-07T07:40:22;3.90;;;2.03;;
80217;SDS011;69533;37.974;23.708;2023-05-07T07:42:48;3.28;;;1.55;;
80217;SDS011;69533;37.974;23.708;2023-05-07T07:45:14;3.55;;;2.10;;
80217;SDS011;69533;37.974;23.708;2023-05-07T07:47:40;7.30;;;1.95;;
80217;SDS011;69533;37.974;23.708;2023-05-07T07:50:06;2.80;;;1.60;;
80217;SDS011;69533;37.974;23.708;2023-05-07T07:52:32;2.67;;;1.92;;
80217;SDS011;69533;37.974;23.708;2023-05-07T07:54:58;1.95;;;1.58;;
80217;SDS011;69533;37.974;23.708;2023-05-07T07:57:24;2.22;;;1.85;;
80217;SDS011;69533;37.974;23.708;2023-05-07T07:59:50;3.92;;;2.10;;
80217;SDS011;69533;37.974;23.708;2023-05-07T08:02:16;2.97;;;1.38;;
80217;SDS011;69533;37.974;23.708;2023-05-07T08:04:42;2.92;;;1.98;;
80217;SDS011;69533;37.974;23.708;2023-05-07T08:07:08;2.67;;;1.95;;
80217;SDS011;69533;37.974;23.708;2023-05-07T08:09:35;2.30;;;1.88;;
80217;SDS011;69533;37.974;23.708;2023-05-07T08:12:02;3.65;;;2.00;;
80217;SDS011;69533;37.974;23.708;2023-05-07T08:14:28;3.33;;;2.10;;
80217;SDS011;69533;37.974;23.708;2023-05-07T08:16:54;2.08;;;1.80;;
80217;SDS011;69533;37.974;23.708;2023-05-07T08:19:20;3.42;;;2.20;;
80217;SDS011;69533;37.974;23.708;2023-05-07T08:21:46;3.10;;;2.08;;
80217;SDS011;69533;37.974;23.708;2023-05-07T08:24:13;4.07;;;1.70;;
80217;SDS011;69533;37.974;23.708;2023-05-07T08:26:39;4.15;;;1.70;;
80217;SDS011;69533;37.974;23.708;2023-05-07T08:29:05;4.88;;;1.90;;
80217;SDS011;69533;37.974;23.708;2023-05-07T08:31:31;4.32;;;1.98;;
80217;SDS011;69533;37.974;23.708;2023-05-07T08:33:57;2.13;;;1.80;;
80217;SDS011;69533;37.974;23.708;2023-05-07T08:36:23;2.33;;;1.70;;
80217;SDS011;69533;37.974;23.708;2023-05-07T08:38:50;2.03;;;1.83;;
80217;SDS011;69533;37.974;23.708;2023-05-07T08:41:16;2.75;;;1.73;;
80217;SDS011;69533;37.974;23.708;2023-05-07T08:43:42;1.58;;;1.38;;
80217;SDS011;69533;37.974;23.708;2023-05-07T08:46:19;2.20;;;2.00;;
80217;SDS011;69533;37.974;23.708;2023-05-07T08:48:48;2.97;;;1.92;;
80217;SDS011;69533;37.974;23.708;2023-05-07T08:51:18;3.17;;;2.08;;
80217;SDS011;69533;37.974;23.708;2023-05-07T08:53:46;3.28;;;1.58;;
80217;SDS011;69533;37.974;23.708;2023-05-07T08:56:13;3.25;;;2.05;;
80217;SDS011;69533;37.974;23.708;2023-05-07T08:58:40;2.38;;;1.95;;
80217;SDS011;69533;37.974;23.708;2023-05-07T09:01:08;3.88;;;1.92;;
80217;SDS011;69533;37.974;23.708;2023-05-07T09:03:36;3.10;;;1.88;;
80217;SDS011;69533;37.974;23.708;2023-05-07T09:06:03;4.85;;;2.17;;
80217;SDS011;69533;37.974;23.708;2023-05-07T09:08:34;2.67;;;1.73;;
80217;SDS011;69533;37.974;23.708;2023-05-07T09:11:01;3.42;;;2.17;;
80217;SDS011;69533;37.974;23.708;2023-05-07T09:13:27;2.80;;;1.90;;
80217;SDS011;69533;37.974;23.708;2023-05-07T09:15:53;3.85;;;2.20;;
80217;SDS011;69533;37.974;23.708;2023-05-07T09:18:19;3.40;;;2.03;;
80217;SDS011;69533;37.974;23.708;2023-05-07T09:20:45;2.72;;;2.08;;
80217;SDS011;69533;37.974;23.708;2023-05-07T09:23:11;2.65;;;1.60;;
80217;SDS011;69533;37.974;23.708;2023-05-07T09:25:37;2.85;;;2.10;;
80217;SDS011;69533;37.974;23.708;2023-05-07T09:28:03;3.95;;;1.85;;
80217;SDS011;69533;37.974;23.708;2023-05-07T09:30:32;3.50;;;1.80;;
80217;SDS011;69533;37.974;23.708;2023-05-07T09:32:59;3.40;;;2.00;;
80217;SDS011;69533;37.974;23.708;2023-05-07T09:35:27;2.75;;;1.92;;
80217;SDS011;69533;37.974;23.708;2023-05-07T09:37:55;4.53;;;2.20;;
80217;SDS011;69533;37.974;23.708;2023-05-07T09:40:23;2.50;;;2.03;;
80217;SDS011;69533;37.974;23.708;2023-05-07T09:42:49;2.92;;;1.65;;
80217;SDS011;69533;37.974;23.708;2023-05-07T09:45:16;3.17;;;2.10;;
80217;SDS011;69533;37.974;23.708;2023-05-07T09:47:49;2.35;;;1.70;;
80217;SDS011;69533;37.974;23.708;2023-05-07T09:50:28;2.53;;;1.98;;
80217;SDS011;69533;37.974;23.708;2023-05-07T09:52:57;1.98;;;1.75;;
80217;SDS011;69533;37.974;23.708;2023-05-07T09:55:23;3.70;;;1.75;;
80217;SDS011;69533;37.974;23.708;2023-05-07T09:57:50;2.67;;;1.70;;
80217;SDS011;69533;37.974;23.708;2023-05-07T10:00:20;2.58;;;2.00;;
80217;SDS011;69533;37.974;23.708;2023-05-07T10:02:51;4.32;;;1.90;;
80217;SDS011;69533;37.974;23.708;2023-05-07T10:05:18;2.55;;;1.60;;
80217;SDS011;69533;37.974;23.708;2023-05-07T10:07:46;3.78;;;2.33;;
80217;SDS011;69533;37.974;23.708;2023-05-07T10:10:12;2.92;;;1.92;;
80217;SDS011;69533;37.974;23.708;2023-05-07T10:12:39;2.88;;;2.45;;
80217;SDS011;69533;37.974;23.708;2023-05-07T10:15:06;4.25;;;2.00;;
80217;SDS011;69533;37.974;23.708;2023-05-07T10:17:36;4.63;;;1.83;;
80217;SDS011;69533;37.974;23.708;2023-05-07T10:20:04;2.80;;;1.80;;
80217;SDS011;69533;37.974;23.708;2023-05-07T10:22:37;2.40;;;1.70;;
80217;SDS011;69533;37.974;23.708;2023-05-07T10:25:09;4.15;;;2.33;;
80217;SDS011;69533;37.974;23.708;2023-05-07T10:27:43;3.70;;;1.70;;
80217;SDS011;69533;37.974;23.708;2023-05-07T10:30:29;3.60;;;2.28;;
80217;SDS011;69533;37.974;23.708;2023-05-07T10:33:03;2.60;;;1.77;;
80217;SDS011;69533;37.974;23.708;2023-05-07T10:35:32;3.55;;;1.98;;
80217;SDS011;69533;37.974;23.708;2023-05-07T10:38:06;3.17;;;2.00;;
80217;SDS011;69533;37.974;23.708;2023-05-07T10:40:32;2.30;;;1.83;;
80217;SDS011;69533;37.974;23.708;2023-05-07T10:45:25;3.67;;;2.00;;
80217;SDS011;69533;37.974;23.708;2023-05-07T10:50:43;2.67;;;2.20;;
80217;SDS011;69533;37.974;23.708;2023-05-07T10:55:48;2.75;;;2.25;;
80217;SDS011;69533;37.974;23.708;2023-05-07T10:58:22;2.20;;;2.00;;
80217;SDS011;69533;37.974;23.708;2023-05-07T11:00:58;3.28;;;2.00;;
80217;SDS011;69533;37.974;23.708;2023-05-07T11:03:26;2.88;;;2.03;;
80217;SDS011;69533;37.974;23.708;2023-05-07T11:11:16;2.40;;;2.13;;
80217;SDS011;69533;37.974;23.708;2023-05-07T11:13:45;2.70;;;2.10;;
80217;SDS011;69533;37.974;23.708;2023-05-07T11:18:50;2.58;;;2.20;;
80217;SDS011;69533;37.974;23.708;2023-05-07T11:21:31;4.68;;;2.30;;
80217;SDS011;69533;37.974;23.708;2023-05-07T11:23:58;2.60;;;2.13;;
80217;SDS011;69533;37.974;23.708;2023-05-07T11:26:25;3.03;;;2.10;;
80217;SDS011;69533;37.974;23.708;2023-05-07T11:28:53;3.33;;;2.15;;
80217;SDS011;69533;37.974;23.708;2023-05-07T11:31:23;3.42;;;2.33;;
80217;SDS011;69533;37.974;23.708;2023-05-07T11:33:51;3.58;;;2.25;;
80217;SDS011;69533;37.974;23.708;2023-05-07T11:36:18;4.47;;;2.15;;
80217;SDS011;69533;37.974;23.708;2023-05-07T11:38:45;2.97;;;2.00;;
80217;SDS011;69533;37.974;23.708;2023-05-07T11:41:11;3.13;;;2.15;;
80217;SDS011;69533;37.974;23.708;2023-05-07T11:43:37;2.67;;;2.20;;
80217;SDS011;69533;37.974;23.708;2023-05-07T11:46:05;3.33;;;2.28;;
80217;SDS011;69533;37.974;23.708;2023-05-07T11:48:32;3.47;;;1.95;;
80217;SDS011;69533;37.974;23.708;2023-05-07T11:53:27;4.10;;;2.30;;
80217;SDS011;69533;37.974;23.708;2023-05-07T11:56:00;2.30;;;2.10;;
80217;SDS011;69533;37.974;23.708;2023-05-07T11:58:30;2.70;;;2.50;;
80217;SDS011;69533;37.974;23.708;2023-05-07T12:00:56;2.75;;;2.08;;
80217;SDS011;69533;37.974;23.708;2023-05-07T12:03:22;6.07;;;2.30;;
80217;SDS011;69533;37.974;23.708;2023-05-07T12:05:48;3.92;;;2.55;;
80217;SDS011;69533;37.974;23.708;2023-05-07T12:08:17;6.97;;;2.45;;
80217;SDS011;69533;37.974;23.708;2023-05-07T12:10:44;2.13;;;1.92;;
80217;SDS011;69533;37.974;23.708;2023-05-07T12:15:42;2.45;;;1.92;;
80217;SDS011;69533;37.974;23.708;2023-05-07T12:18:08;2.72;;;2.28;;
80217;SDS011;69533;37.974;23.708;2023-05-07T12:20:35;2.95;;;2.00;;
80217;SDS011;69533;37.974;23.708;2023-05-07T12:23:02;2.95;;;2.20;;
80217;SDS011;69533;37.974;23.708;2023-05-07T12:25:31;2.60;;;2.08;;
80217;SDS011;69533;37.974;23.708;2023-05-07T12:28:04;3.35;;;2.42;;
80217;SDS011;69533;37.974;23.708;2023-05-07T12:30:39;3.50;;;2.10;;
80217;SDS011;69533;37.974;23.708;2023-05-07T12:33:05;4.07;;;2.40;;
80217;SDS011;69533;37.974;23.708;2023-05-07T12:35:32;3.38;;;2.28;;
80217;SDS011;69533;37.974;23.708;2023-05-07T12:38:02;4.88;;;2.22;;
80217;SDS011;69533;37.974;23.708;2023-05-07T12:40:44;3.08;;;2.53;;
80217;SDS011;69533;37.974;23.708;2023-05-07T12:43:16;2.80;;;2.25;;
80217;SDS011;69533;37.974;23.708;2023-05-07T12:45:45;2.53;;;2.33;;
80217;SDS011;69533;37.974;23.708;2023-05-07T12:48:12;3.03;;;2.40;;
80217;SDS011;69533;37.974;23.708;2023-05-07T12:50:38;2.75;;;2.15;;
80217;SDS011;69533;37.974;23.708;2023-05-07T12:53:05;4.35;;;2.53;;
80217;SDS011;69533;37.974;23.708;2023-05-07T12:55:39;4.28;;;2.17;;
80217;SDS011;69533;37.974;23.708;2023-05-07T13:00:54;3.47;;;2.63;;
80217;SDS011;69533;37.974;23.708;2023-05-07T13:03:30;4.38;;;2.17;;
80217;SDS011;69533;37.974;23.708;2023-05-07T13:05:58;3.30;;;2.40;;
80217;SDS011;69533;37.974;23.708;2023-05-07T13:08:39;3.30;;;2.40;;
80217;SDS011;69533;37.974;23.708;2023-05-07T13:11:08;3.97;;;2.42;;
80217;SDS011;69533;37.974;23.708;2023-05-07T13:13:35;3.40;;;2.65;;
80217;SDS011;69533;37.974;23.708;2023-05-07T13:16:03;3.20;;;2.42;;
80217;SDS011;69533;37.974;23.708;2023-05-07T13:18:30;2.60;;;2.28;;
80217;SDS011;69533;37.974;23.708;2023-05-07T13:20:56;2.50;;;2.15;;
80217;SDS011;69533;37.974;23.708;2023-05-07T13:23:22;2.33;;;2.13;;
80217;SDS011;69533;37.974;23.708;2023-05-07T13:25:48;2.85;;;2.22;;
80217;SDS011;69533;37.974;23.708;2023-05-07T13:28:15;3.45;;;2.60;;
80217;SDS011;69533;37.974;23.708;2023-05-07T13:30:41;2.50;;;2.10;;
80217;SDS011;69533;37.974;23.708;2023-05-07T13:33:07;3.05;;;2.10;;
80217;SDS011;69533;37.974;23.708;2023-05-07T13:35:33;2.70;;;2.22;;
80217;SDS011;69533;37.974;23.708;2023-05-07T13:37:59;3.28;;;2.15;;
80217;SDS011;69533;37.974;23.708;2023-05-07T13:40:25;3.67;;;2.03;;
80217;SDS011;69533;37.974;23.708;2023-05-07T13:42:50;2.95;;;2.13;;
80217;SDS011;69533;37.974;23.708;2023-05-07T13:45:17;2.95;;;2.50;;
80217;SDS011;69533;37.974;23.708;2023-05-07T13:47:44;4.13;;;2.33;;
80217;SDS011;69533;37.974;23.708;2023-05-07T13:50:10;3.53;;;2.50;;
80217;SDS011;69533;37.974;23.708;2023-05-07T13:52:36;3.75;;;2.10;;
80217;SDS011;69533;37.974;23.708;2023-05-07T13:55:03;3.92;;;2.45;;
80217;SDS011;69533;37.974;23.708;2023-05-07T13:57:29;3.60;;;2.75;;
80217;SDS011;69533;37.974;23.708;2023-05-07T13:59:54;5.00;;;2.67;;
80217;SDS011;69533;37.974;23.708;2023-05-07T14:02:20;2.63;;;2.20;;
80217;SDS011;69533;37.974;23.708;2023-05-07T14:04:46;2.78;;;2.30;;
80217;SDS011;69533;37.974;23.708;2023-05-07T14:07:11;3.20;;;2.05;;
80217;SDS011;69533;37.974;23.708;2023-05-07T14:09:37;3.08;;;2.40;;
80217;SDS011;69533;37.974;23.708;2023-05-07T14:12:03;3.08;;;2.38;;
80217;SDS011;69533;37.974;23.708;2023-05-07T14:14:29;3.05;;;2.30;;
80217;SDS011;69533;37.974;23.708;2023-05-07T14:16:55;3.85;;;2.00;;
80217;SDS011;69533;37.974;23.708;2023-05-07T14:19:21;3.33;;;2.42;;
80217;SDS011;69533;37.974;23.708;2023-05-07T14:21:47;2.60;;;2.40;;
80217;SDS011;69533;37.974;23.708;2023-05-07T14:24:14;5.35;;;2.22;;
80217;SDS011;69533;37.974;23.708;2023-05-07T14:26:39;2.50;;;2.30;;
80217;SDS011;69533;37.974;23.708;2023-05-07T14:29:05;2.28;;;2.08;;
80217;SDS011;69533;37.974;23.708;2023-05-07T14:31:31;2.65;;;2.13;;
80217;SDS011;69533;37.974;23.708;2023-05-07T14:33:58;3.15;;;2.45;;
80217;SDS011;69533;37.974;23.708;2023-05-07T14:36:24;3.05;;;2.15;;
80217;SDS011;69533;37.974;23.708;2023-05-07T14:38:51;2.47;;;2.25;;
80217;SDS011;69533;37.974;23.708;2023-05-07T14:41:19;2.30;;;1.98;;
80217;SDS011;69533;37.974;23.708;2023-05-07T14:43:46;4.20;;;2.22;;
80217;SDS011;69533;37.974;23.708;2023-05-07T14:46:17;2.50;;;2.20;;
80217;SDS011;69533;37.974;23.708;2023-05-07T14:48:46;5.13;;;2.28;;
80217;SDS011;69533;37.974;23.708;2023-05-07T14:51:12;2.47;;;2.28;;
80217;SDS011;69533;37.974;23.708;2023-05-07T14:53:40;4.25;;;2.50;;
80217;SDS011;69533;37.974;23.708;2023-05-07T14:56:06;3.05;;;2.40;;